Terminal Aerodrome Forecast
Issued by NWS Bismarck, ND

Home | Current Version | Previous Version | Text Only | Print | Product List | Glossary Off
Versions: 1 2 3 4 5 6 7 8 9 10 11 12 13

000
FTUS43 KBIS 131100
TAFISN
TAF
KISN 131135Z 1312/1412 24005KT P6SM BKN150
     FM131600 31014G20KT P6SM BKN035
     FM140100 32008KT P6SM BKN050
     FM140500 31004KT P6SM SCT050=

USA.gov is the U.S. government's official web portal to all federal, state and local government web resources and services.